Time;durP1;ratioP1;P1;durP2;ratioP2;P2;SDS_P1;SDS_P2;PMS_P1;PMS_P2;Temp;Humidity;BMP_temperature;BMP_pressure;BME280_temperature;BME280_humidity;BME280_pressure;Samples;Min_cycle;Max_cycle;Signal;HPM_P1;HPM_P2
2022/11/04 00:02:08;;;;;;;104.85;45.45;;;;;;;2.76;88.22;94662.25;1504725;95;21185;-81
2022/11/04 00:04:36;;;;;;;98.92;46.85;;;;;;;2.76;88.09;94660.32;1528489;94;21041;-81
2022/11/04 00:08:22;;;;;;;88.45;43.83;;;;;;;2.83;88.50;94660.86;1527630;93;21598;-81
2022/11/04 00:09:33;;;;;;;95.22;44.05;;;;;;;2.94;88.49;94656.09;1504523;95;21580;-81
2022/11/04 00:14:46;;;;;;;107.10;45.43;;;;;;;3.01;87.77;94656.81;1530813;89;21063;-82
2022/11/04 00:17:21;;;;;;;76.92;36.13;;;;;;;3.04;87.91;94653.29;1610515;88;21102;-81
2022/11/04 00:33:24;;;;;;;61.30;33.23;;;;;;;2.89;86.28;94654.57;1605430;89;21086;-81
2022/11/04 00:33:30;;;;;;;75.62;35.28;;;;;;;2.80;85.72;94650.20;1605382;89;21537;-81
2022/11/04 00:35:58;;;;;;;71.65;35.23;;;;;;;2.63;85.59;94647.59;1607356;89;21280;-81
2022/11/04 00:38:25;;;;;;;76.10;38.20;;;;;;;2.57;86.34;94649.98;1607415;89;21157;-81
2022/11/04 00:40:52;;;;;;;80.40;38.70;;;;;;;2.66;87.00;94642.75;1605461;89;21086;-81
2022/11/04 00:43:18;;;;;;;82.05;36.20;;;;;;;2.73;86.93;94645.40;1605104;89;21051;-82
2022/11/04 00:45:46;;;;;;;80.85;39.10;;;;;;;2.74;86.91;94644.23;1605340;89;20998;-82
2022/11/04 00:48:15;;;;;;;67.47;33.40;;;;;;;2.78;87.02;94640.89;1605662;89;22170;-81
2022/11/04 00:50:42;;;;;;;67.87;34.18;;;;;;;2.76;86.76;94638.59;1605911;89;21486;-80
2022/11/04 00:53:09;;;;;;;61.63;32.73;;;;;;;2.82;87.38;94633.48;1608529;89;21047;-82
2022/11/04 00:55:36;;;;;;;66.92;34.65;;;;;;;2.87;86.96;94627.64;1605431;89;21046;-82
2022/11/04 00:58:03;;;;;;;58.13;30.27;;;;;;;2.89;86.91;94617.14;1607938;89;21110;-81
2022/11/04 01:00:30;;;;;;;60.50;30.20;;;;;;;2.91;86.75;94620.23;1607414;89;21286;-81
2022/11/04 01:02:59;;;;;;;55.55;27.42;;;;;;;2.86;86.51;94617.95;1605536;89;21284;-82
2022/11/04 01:05:26;;;;;;;54.90;28.07;;;;;;;2.80;86.31;94614.09;1613013;89;21002;-81
2022/11/04 01:07:53;;;;;;;57.95;31.60;;;;;;;2.72;86.20;94612.63;1585649;89;21128;-81
2022/11/04 01:10:20;;;;;;;59.33;30.52;;;;;;;2.61;86.09;94607.85;1610114;89;21110;-82
2022/11/04 01:12:53;;;;;;;50.25;27.90;;;;;;;2.54;86.36;94607.92;1585841;89;21876;-82
2022/11/04 01:15:22;;;;;;;58.20;28.98;;;;;;;2.50;86.39;94605.82;1609711;89;21098;-81
2022/11/04 01:17:51;;;;;;;52.90;29.80;;;;;;;2.42;86.14;94594.81;1608187;89;21046;-81
2022/11/04 01:20:19;;;;;;;106.03;55.50;;;;;;;2.40;86.41;94598.52;1606290;87;21042;-81
2022/11/04 01:22:45;;;;;;;67.00;32.45;;;;;;;2.38;86.49;94592.14;1607686;89;21031;-81
2022/11/04 01:25:12;;;;;;;63.68;33.20;;;;;;;2.36;86.41;94592.34;1602415;89;21801;-80
2022/11/04 01:27:39;;;;;;;55.78;30.37;;;;;;;2.31;86.46;94594.12;1605693;89;21027;-81
2022/11/04 01:30:09;;;;;;;55.78;27.60;;;;;;;2.26;86.34;94579.03;1608210;89;21514;-80
2022/11/04 01:32:53;;;;;;;57.48;30.85;;;;;;;2.18;86.11;94577.52;1607997;89;21130;-82
2022/11/04 01:35:20;;;;;;;66.10;37.20;;;;;;;2.05;86.13;94574.31;1605973;88;21046;-79
2022/11/04 01:37:46;;;;;;;64.82;35.52;;;;;;;1.91;86.28;94575.75;1607977;89;21262;-81
2022/11/04 01:40:13;;;;;;;62.17;33.23;;;;;;;1.83;86.19;94570.19;1608432;88;21513;-81
2022/11/04 01:42:42;;;;;;;67.08;36.42;;;;;;;1.75;86.27;94565.98;1605086;89;21495;-81
2022/11/04 01:45:15;;;;;;;82.35;38.80;;;;;;;1.71;86.67;94557.07;1607927;89;21501;-82
2022/11/04 01:47:46;;;;;;;69.73;37.47;;;;;;;1.84;87.01;94556.81;1607643;89;21065;-82
2022/11/04 01:50:23;;;;;;;64.58;34.13;;;;;;;1.84;87.01;94556.81;1605657;89;21892;-81
2022/11/04 01:52:59;;;;;;;68.12;34.30;;;;;;;1.92;87.61;94565.87;1531031;93;21030;-82
2022/11/04 01:55:29;;;;;;;60.98;35.63;;;;;;;1.97;87.23;94552.48;1487262;96;21043;-82
2022/11/04 01:58:05;;;;;;;62.10;33.18;;;;;;;1.92;87.08;94554.27;1489862;96;21142;-81
2022/11/04 02:00:33;;;;;;;60.70;34.78;;;;;;;1.87;87.02;94550.59;1446049;99;21119;-81
2022/11/04 02:03:23;;;;;;;62.90;33.67;;;;;;;1.76;86.81;94545.83;1445930;99;21262;-81
2022/11/04 02:05:51;;;;;;;73.37;34.03;;;;;;;1.69;86.86;94545.09;1441751;99;21694;-81
2022/11/04 02:08:18;;;;;;;60.50;30.50;;;;;;;1.63;86.94;94549.37;1446339;99;21096;-81
2022/11/04 02:10:53;;;;;;;59.08;31.33;;;;;;;1.54;86.93;94548.44;1445925;99;21516;-81
2022/11/04 02:13:20;;;;;;;51.08;30.45;;;;;;;1.43;87.08;94547.73;1408988;101;21606;-81
2022/11/04 02:16:15;;;;;;;49.98;27.50;;;;;;;1.39;87.32;94542.92;1405221;101;21329;-80
2022/11/04 02:18:58;;;;;;;47.62;27.42;;;;;;;1.37;87.73;94549.31;1407866;101;21016;-80
2022/11/04 02:22:05;;;;;;;47.70;26.27;;;;;;;1.43;88.04;94545.02;1360940;105;21169;-81
2022/11/04 02:25:18;;;;;;;38.08;22.55;;;;;;;1.50;88.31;94549.64;1337796;106;21163;-81
2022/11/04 02:28:27;;;;;;;40.23;22.80;;;;;;;1.55;87.83;94540.52;1337515;107;21066;-80
2022/11/04 02:31:01;;;;;;;32.53;20.57;;;;;;;1.48;87.40;94536.48;1355447;105;21246;-81
2022/11/04 02:33:43;;;;;;;25.97;16.87;;;;;;;1.42;87.25;94538.06;1359219;105;21586;-83
2022/11/04 02:36:21;;;;;;;27.13;16.00;;;;;;;1.36;87.22;94537.50;1359071;105;21646;-81
2022/11/04 02:38:58;;;;;;;26.85;17.90;;;;;;;1.30;87.40;94533.66;1336289;107;21222;-81
2022/11/04 02:41:36;;;;;;;37.33;22.37;;;;;;;1.28;87.75;94532.69;1336215;107;21103;-81
2022/11/04 02:44:38;;;;;;;36.68;22.20;;;;;;;1.40;88.44;94524.14;1348501;106;21313;-80
2022/11/04 02:47:17;;;;;;;34.88;22.27;;;;;;;1.54;88.68;94526.75;1348346;106;21145;-80
2022/11/04 02:50:09;;;;;;;41.63;25.20;;;;;;;1.56;88.30;94524.45;1348875;106;21142;-81
2022/11/04 02:52:44;;;;;;;42.78;24.45;;;;;;;1.53;88.24;94523.86;1360039;105;21097;-81
2022/11/04 02:55:16;;;;;;;46.83;25.92;;;;;;;1.56;88.89;94531.80;1367978;105;21627;-81
2022/11/04 02:57:45;;;;;;;43.28;25.95;;;;;;;1.66;89.07;94519.54;1386248;99;21511;-81
2022/11/04 03:00:13;;;;;;;42.98;23.67;;;;;;;1.82;89.23;94519.84;1438626;97;21166;-80
2022/11/04 03:02:44;;;;;;;47.78;25.77;;;;;;;1.90;88.73;94511.83;1480582;92;21130;-82
2022/11/04 03:05:16;;;;;;;39.40;23.22;;;;;;;1.95;88.83;94511.43;1501357;95;21038;-82
2022/11/04 03:07:43;;;;;;;38.25;23.25;;;;;;;2.02;88.25;94511.38;1514023;94;21005;-82
2022/11/04 03:10:15;;;;;;;31.05;19.90;;;;;;;1.98;87.60;94505.96;1519499;89;21144;-83
2022/11/04 03:12:57;;;;;;;32.08;20.97;;;;;;;1.95;87.47;94499.22;1538550;90;21263;-83
2022/11/04 03:15:29;;;;;;;31.93;19.10;;;;;;;1.93;87.26;94504.28;1509559;95;21138;-82
2022/11/04 03:18:33;;;;;;;32.48;21.23;;;;;;;1.85;86.63;94500.05;1506824;95;21082;-84
2022/11/04 03:21:02;;;;;;;28.45;19.07;;;;;;;1.73;86.41;94491.63;1515800;93;21579;-81
2022/11/04 03:23:28;;;;;;;28.32;19.42;;;;;;;1.57;86.43;94500.23;1514174;93;21300;-83
2022/11/04 03:26:00;;;;;;;31.57;19.20;;;;;;;1.45;86.56;94492.55;1513963;93;21079;-81
2022/11/04 03:28:52;;;;;;;34.80;21.87;;;;;;;1.43;86.92;94493.53;1514002;93;21144;-81
2022/11/04 03:31:26;;;;;;;37.07;23.00;;;;;;;1.43;87.24;94490.04;1514219;93;21122;-81
2022/11/04 03:33:53;;;;;;;30.27;20.32;;;;;;;1.40;87.07;94488.13;1514027;94;21102;-81
2022/11/04 03:36:22;;;;;;;45.55;27.62;;;;;;;1.39;87.20;94493.36;1517665;93;21065;-82
2022/11/04 03:38:50;;;;;;;33.95;22.15;;;;;;;1.33;87.00;94483.51;1536951;93;21077;-83
2022/11/04 03:41:37;;;;;;;32.67;21.20;;;;;;;1.32;87.38;94483.92;1536706;93;21256;-82
2022/11/04 03:44:04;;;;;;;49.10;28.83;;;;;;;1.29;87.16;94482.76;1537227;93;21061;-81
2022/11/04 03:46:31;;;;;;;37.45;25.17;;;;;;;1.21;87.25;94489.39;1536798;93;21081;-81
2022/11/04 03:49:00;;;;;;;37.50;24.45;;;;;;;1.21;87.59;94485.33;1537100;93;21136;-81
2022/11/04 03:51:27;;;;;;;28.62;17.10;;;;;;;1.21;87.73;94485.33;1536696;92;21630;-81
2022/11/04 03:53:54;;;;;;;29.05;19.23;;;;;;;1.25;87.81;94487.42;1537027;93;21025;-82
2022/11/04 03:57:00;;;;;;;25.97;17.80;;;;;;;1.26;87.66;94490.89;1536652;93;21088;-82
2022/11/04 04:00:06;;;;;;;34.03;18.65;;;;;;;1.28;87.99;94490.70;1536879;93;21165;-81
2022/11/04 04:02:59;;;;;;;31.10;18.73;;;;;;;1.35;88.25;94496.08;1536696;92;21215;-82
2022/11/04 04:05:32;;;;;;;31.73;20.15;;;;;;;1.45;87.74;94489.84;1537088;93;21022;-81
2022/11/04 04:08:27;;;;;;;38.23;18.98;;;;;;;1.30;86.64;94488.36;1536725;93;21169;-82
2022/11/04 04:11:22;;;;;;;47.53;20.50;;;;;;;1.18;86.67;94491.50;1538723;90;21214;-82
2022/11/04 04:14:09;;;;;;;33.50;21.75;;;;;;;1.10;86.87;94485.94;1588376;89;21117;-82
2022/11/04 04:16:42;;;;;;;39.98;24.47;;;;;;;1.22;87.79;94482.80;1611144;89;21852;-82
2022/11/04 04:19:12;;;;;;;37.15;21.97;;;;;;;1.35;87.83;94475.00;1579650;90;21118;-82
2022/11/04 04:21:53;;;;;;;51.35;26.90;;;;;;;1.41;87.60;94474.19;1579721;90;21697;-82
2022/11/04 04:29:54;;;;;;;41.92;24.12;;;;;;;1.57;86.96;94454.16;1498038;94;21209;-81
2022/11/04 04:32:24;;;;;;;56.40;29.40;;;;;;;1.55;86.49;94457.07;1513400;94;21578;-81
2022/11/04 04:35:40;;;;;;;37.63;24.18;;;;;;;1.50;86.54;94457.50;1513899;94;21089;-81
2022/11/04 04:37:24;;;;;;;47.88;25.15;;;;;;;1.52;86.59;94455.16;1492210;94;21561;-82
2022/11/04 04:45:36;;;;;;;49.85;29.98;;;;;;;1.50;85.73;94463.67;1485799;95;21185;-81
2022/11/04 04:48:06;;;;;;;40.70;25.12;;;;;;;1.46;85.97;94468.92;1481962;96;21093;-81
2022/11/04 04:50:37;;;;;;;35.85;23.57;;;;;;;1.49;86.60;94466.20;1463452;96;21121;-82
2022/11/04 04:53:04;;;;;;;37.73;23.62;;;;;;;1.56;86.20;94466.17;1426949;100;21111;-82
2022/11/04 04:55:32;;;;;;;32.53;20.75;;;;;;;1.52;85.62;94459.98;1410243;100;21314;-80
2022/11/04 04:57:59;;;;;;;33.92;19.90;;;;;;;1.47;85.75;94461.00;1424255;100;21144;-82
2022/11/04 05:00:28;;;;;;;31.95;22.52;;;;;;;1.42;85.38;94459.48;1427017;100;21665;-82
2022/11/04 05:02:55;;;;;;;36.23;22.90;;;;;;;1.33;85.13;94467.25;1426852;100;21558;-81
2022/11/04 05:05:22;;;;;;;37.03;22.52;;;;;;;1.29;85.40;94473.28;1427775;97;21156;-82
2022/11/04 05:07:51;;;;;;;31.23;19.48;;;;;;;1.28;84.82;94471.73;1408455;100;21155;-82
2022/11/04 05:10:19;;;;;;;29.20;20.08;;;;;;;1.28;85.28;94461.50;1409250;100;21211;-81
2022/11/04 05:15:33;;;;;;;33.10;19.27;;;;;;;1.37;85.11;94459.90;1403501;102;21119;-84
2022/11/04 05:18:02;;;;;;;29.87;18.92;;;;;;;1.52;85.54;94458.63;1404438;102;21130;-81
2022/11/04 05:20:32;;;;;;;42.17;21.00;;;;;;;1.65;85.24;94458.95;1427240;97;21796;-83
2022/11/04 05:23:00;;;;;;;33.95;20.27;;;;;;;1.67;84.60;94455.27;1467491;97;21067;-86
2022/11/04 05:25:27;;;;;;;48.70;20.15;;;;;;;1.71;84.33;94452.69;1468873;97;21469;-85
2022/11/04 05:27:54;;;;;;;38.85;22.58;;;;;;;1.77;84.19;94453.83;1468649;96;21059;-84
2022/11/04 05:30:21;;;;;;;36.42;24.27;;;;;;;1.75;83.74;94452.86;1468858;97;21208;-84
2022/11/04 05:32:48;;;;;;;32.85;23.12;;;;;;;1.76;83.73;94454.41;1468931;97;21135;-83
2022/11/04 05:35:16;;;;;;;34.65;21.07;;;;;;;1.76;83.50;94453.64;1445631;99;21746;-80
2022/11/04 05:37:42;;;;;;;36.70;22.60;;;;;;;1.79;83.42;94453.60;1437175;99;21117;-82
2022/11/04 05:40:13;;;;;;;35.80;22.50;;;;;;;1.79;83.35;94456.91;1458957;98;21191;-86
2022/11/04 05:42:40;;;;;;;46.28;23.38;;;;;;;1.82;83.34;94458.25;1469957;97;21188;-80
2022/11/04 05:45:08;;;;;;;32.58;21.30;;;;;;;1.84;83.21;94457.84;1469932;97;21692;-84
2022/11/04 05:47:35;;;;;;;40.65;24.87;;;;;;;1.90;83.42;94457.59;1470259;97;21106;-78
2022/11/04 05:50:05;;;;;;;38.65;22.85;;;;;;;1.99;83.34;94459.28;1519603;91;21088;-84
2022/11/04 05:52:32;;;;;;;37.83;23.83;;;;;;;2.05;82.88;94463.88;1562739;91;21007;-84
2022/11/04 05:55:01;;;;;;;43.15;25.20;;;;;;;2.00;82.46;94448.61;1562912;91;21130;-81
2022/11/04 05:57:28;;;;;;;41.50;24.67;;;;;;;1.93;82.54;94454.11;1559250;91;21149;-81
2022/11/04 05:59:56;;;;;;;57.10;34.30;;;;;;;1.95;82.87;94449.80;1582703;89;21039;-80
2022/11/04 06:02:26;;;;;;;98.58;50.60;;;;;;;2.04;82.91;94444.71;1612293;89;21054;-81
2022/11/04 06:04:53;;;;;;;62.10;37.90;;;;;;;2.18;83.09;94445.17;1570029;89;21518;-82
2022/11/04 06:07:20;;;;;;;45.60;27.93;;;;;;;2.31;82.78;94452.41;1609636;89;21089;-80
2022/11/04 06:09:47;;;;;;;51.60;26.12;;;;;;;2.36;82.37;94444.42;1605458;89;21337;-81
2022/11/04 06:12:14;;;;;;;39.35;24.80;;;;;;;2.35;82.06;94451.02;1605050;89;21034;-81
2022/11/04 06:14:43;;;;;;;36.75;22.17;;;;;;;2.32;82.19;94451.84;1607352;89;21086;-81
2022/11/04 06:17:16;;;;;;;35.83;23.00;;;;;;;2.32;82.10;94453.19;1600657;89;21255;-82
2022/11/04 06:19:43;;;;;;;41.55;26.15;;;;;;;2.32;82.07;94451.84;1565615;90;21058;-82
2022/11/04 06:22:12;;;;;;;61.92;25.35;;;;;;;2.36;82.11;94450.61;1579580;90;21635;-82
2022/11/04 06:24:39;;;;;;;43.87;26.00;;;;;;;2.41;82.01;94452.13;1582475;90;21050;-80
2022/11/04 06:27:10;;;;;;;39.03;23.40;;;;;;;2.45;81.71;94458.28;1582200;90;21046;-83
2022/11/04 06:29:40;;;;;;;40.92;23.18;;;;;;;2.45;81.73;94448.78;1583215;89;37779;-82
2022/11/04 06:32:13;;;;;;;43.70;26.48;;;;;;;2.45;81.77;94442.00;1587053;89;21070;-85
2022/11/04 06:34:40;;;;;;;43.08;25.68;;;;;;;2.45;81.53;94443.35;1608825;87;21444;-87
2022/11/04 06:37:08;;;;;;;57.43;28.70;;;;;;;2.45;81.76;94442.00;1589571;89;21098;-82
2022/11/04 06:39:36;;;;;;;57.13;32.17;;;;;;;2.53;81.98;94441.53;1589599;89;21565;-83
2022/11/04 06:42:03;;;;;;;83.42;40.03;;;;;;;2.65;82.18;94442.98;1609001;88;21052;-88
2022/11/04 06:44:33;;;;;;;74.42;38.83;;;;;;;2.78;81.77;94436.63;1608255;89;21079;-85
2022/11/04 06:47:10;;;;;;;67.15;39.08;;;;;;;2.86;81.32;94423.73;1609808;89;21204;-85
2022/11/04 06:49:47;;;;;;;99.22;44.03;;;;;;;2.91;81.13;94423.28;1583734;89;21691;-87
2022/11/04 06:52:19;;;;;;;67.40;35.73;;;;;;;2.97;81.13;94423.79;1570407;90;21683;-87
2022/11/04 06:55:29;;;;;;;55.75;34.78;;;;;;;3.04;80.86;94428.38;1578090;90;21177;-85
2022/11/04 07:00:59;;;;;;;59.48;34.60;;;;;;;2.99;81.02;94426.08;1399190;100;21249;-86
2022/11/04 07:03:28;;;;;;;63.90;36.83;;;;;;;3.07;81.48;94420.77;1419083;99;21098;-86
2022/11/04 07:05:57;;;;;;;64.22;38.92;;;;;;;3.23;81.34;94419.59;1401544;101;21212;-86
2022/11/04 07:08:32;;;;;;;73.22;37.08;;;;;;;3.42;81.29;94413.51;1390243;103;21096;-85
2022/11/04 07:11:04;;;;;;;58.87;38.02;;;;;;;3.57;80.89;94417.75;1410831;101;21169;-87
2022/11/04 07:13:35;;;;;;;47.05;28.23;;;;;;;3.65;80.24;94415.09;1379497;102;21234;-86
2022/11/04 07:16:28;;;;;;;50.03;28.02;;;;;;;3.66;79.92;94409.83;1360861;105;21074;-88
2022/11/04 07:18:58;;;;;;;61.30;29.23;;;;;;;3.67;79.85;94409.26;1329807;107;21130;-88
2022/11/04 07:21:31;;;;;;;41.42;21.75;;;;;;;3.82;79.97;94395.59;1323902;108;21084;-91
2022/11/04 07:24:06;;;;;;;48.78;26.75;;;;;;;4.10;79.99;94388.35;1323561;105;21217;-84
2022/11/04 07:29:54;;;;;;;43.08;24.12;;;;;;;4.84;79.54;94380.39;1265305;113;21268;-87
2022/11/04 07:32:32;;;;;;;42.90;23.47;;;;;;;5.08;77.89;94381.84;1283254;111;21189;-82
2022/11/04 07:35:04;;;;;;;37.05;22.82;;;;;;;5.29;77.50;94367.75;1254119;111;21521;-83
2022/11/04 07:40:57;;;;;;;39.03;20.10;;;;;;;5.56;75.36;94373.19;1313498;106;21371;-88
2022/11/04 07:46:18;;;;;;;26.55;16.62;;;;;;;5.53;73.96;94360.98;1265363;111;21204;-91
2022/11/04 07:48:49;;;;;;;22.90;15.53;;;;;;;5.67;74.22;94353.84;1246722;113;21193;-86
2022/11/04 07:51:21;;;;;;;25.88;14.95;;;;;;;6.00;74.49;94349.35;1266630;111;21155;-88
2022/11/04 07:53:52;;;;;;;30.85;17.40;;;;;;;6.36;73.08;94347.88;1267733;109;23120;-86
2022/11/04 07:56:22;;;;;;;28.62;14.25;;;;;;;6.50;71.62;94348.89;1301116;108;21213;-84
2022/11/04 07:59:00;;;;;;;29.70;15.15;;;;;;;6.62;70.69;94343.47;1305165;109;21736;-80
2022/11/04 08:01:33;;;;;;;22.27;14.80;;;;;;;6.72;69.72;94341.03;1303563;108;21655;-86
2022/11/04 08:04:13;;;;;;;18.90;12.63;;;;;;;6.71;69.03;94340.11;1324015;107;21158;-89
2022/11/04 08:07:23;;;;;;;27.02;15.80;;;;;;;6.74;68.87;94335.15;1346992;105;21176;-89
2022/11/04 08:09:59;;;;;;;27.50;14.25;;;;;;;6.92;68.53;94336.80;1274560;111;21251;-88
2022/11/04 08:12:26;;;;;;;32.50;16.45;;;;;;;7.04;68.27;94334.08;1286923;106;21227;-86
2022/11/04 08:14:54;;;;;;;46.88;33.10;;;;;;;7.13;68.81;94336.34;1353736;105;21222;-85
2022/11/04 08:17:25;;;;;;;47.08;31.68;;;;;;;7.31;68.30;94332.49;1358487;104;21116;-86
2022/11/04 08:19:52;;;;;;;35.92;21.95;;;;;;;7.54;67.70;94329.44;1347894;104;21159;-85
2022/11/04 08:22:20;;;;;;;31.80;19.73;;;;;;;7.68;67.08;94330.37;1358220;103;21247;-83
2022/11/04 08:24:48;;;;;;;39.03;18.77;;;;;;;7.73;66.32;94322.23;1403268;101;21323;-86
2022/11/04 08:27:22;;;;;;;24.43;14.20;;;;;;;7.77;66.01;94320.92;1392498;102;21327;-85
2022/11/04 08:29:56;;;;;;;35.48;17.42;;;;;;;7.82;65.14;94316.25;1408490;99;21211;-88
2022/11/04 08:32:48;;;;;;;33.20;14.80;;;;;;;7.83;64.74;94312.89;1365352;104;21346;-91
2022/11/04 08:35:42;;;;;;;34.40;16.97;;;;;;;7.90;64.47;94309.95;1379306;103;21256;-85
2022/11/04 08:41:39;;;;;;;33.40;19.12;;;;;;;8.08;63.66;94298.56;1321505;98;21197;-92
2022/11/04 08:44:15;;;;;;;39.08;21.07;;;;;;;8.19;63.49;94300.39;1268182;112;21651;-90
2022/11/04 08:46:56;;;;;;;36.60;19.95;;;;;;;8.27;63.84;94295.44;1263844;110;21276;-92
2022/11/04 08:55:45;;;;;;;34.95;17.62;;;;;;;8.90;62.88;94287.12;1250558;110;21186;-89
2022/11/04 08:58:19;;;;;;;32.70;17.23;;;;;;;8.93;62.48;94283.47;1236411;113;21237;-90
2022/11/04 09:00:55;;;;;;;36.40;17.62;;;;;;;8.93;62.52;94282.88;1240729;114;21250;-87
2022/11/04 09:03:35;;;;;;;22.40;14.23;;;;;;;8.99;62.58;94288.53;1229979;114;21402;-90
2022/11/04 09:06:11;;;;;;;20.23;13.28;;;;;;;9.02;62.00;94279.41;1236768;110;21194;-90
2022/11/04 09:08:42;;;;;;;33.67;18.10;;;;;;;8.99;61.90;94270.70;1278201;108;21294;-85
2022/11/04 09:11:15;;;;;;;23.62;13.72;;;;;;;9.10;62.15;94265.59;1285907;110;21237;-89
2022/11/04 09:13:48;;;;;;;25.37;14.73;;;;;;;9.34;62.14;94262.51;1297156;109;21865;-85
2022/11/04 09:16:20;;;;;;;39.15;20.95;;;;;;;9.60;61.68;94252.88;1307001;108;21136;-89
2022/11/04 09:21:24;;;;;;;30.65;17.27;;;;;;;10.19;60.74;94247.69;1291320;108;21282;-88
2022/11/04 09:23:55;;;;;;;41.77;19.93;;;;;;;10.49;59.68;94241.93;1286096;109;21878;-89
2022/11/04 09:26:50;;;;;;;20.17;12.40;;;;;;;10.67;59.04;94239.14;1301492;104;21352;-88
2022/11/04 09:29:32;;;;;;;21.87;11.70;;;;;;;10.90;58.19;94244.78;1241617;111;21219;-93
2022/11/04 09:32:03;;;;;;;22.70;12.53;;;;;;;11.06;57.37;94243.08;1254957;113;21348;-86
2022/11/04 09:34:36;;;;;;;20.12;12.15;;;;;;;11.10;56.33;94241.70;1254548;113;21265;-91
2022/11/04 09:37:15;;;;;;;19.95;12.78;;;;;;;11.06;56.11;94241.11;1233821;113;21249;-87
2022/11/04 09:39:46;;;;;;;22.30;11.95;;;;;;;10.94;56.41;94231.02;1216019;117;21966;-82
2022/11/04 09:42:57;;;;;;;19.40;12.82;;;;;;;10.91;56.40;94233.92;1223207;114;21327;-91
2022/11/04 09:45:33;;;;;;;18.85;12.82;;;;;;;10.84;56.35;94221.24;1260673;113;21220;-87
2022/11/04 09:48:08;;;;;;;24.70;12.98;;;;;;;10.73;56.40;94215.47;1290439;110;21294;-85
2022/11/04 09:53:57;;;;;;;25.25;12.43;;;;;;;10.55;56.73;94222.95;1268027;111;21964;-85
2022/11/04 09:56:43;;;;;;;26.17;10.80;;;;;;;10.46;56.93;94213.35;1238723;113;21769;-89
2022/11/04 09:59:19;;;;;;;22.35;10.90;;;;;;;10.58;56.93;94221.28;1266834;112;21285;-85
2022/11/04 10:02:31;;;;;;;32.48;11.90;;;;;;;10.63;56.56;94215.16;1249920;110;21266;-85
2022/11/04 10:05:37;;;;;;;25.72;12.28;;;;;;;10.58;56.42;94215.78;1234396;114;21402;-86
2022/11/04 10:08:38;;;;;;;28.80;13.80;;;;;;;10.49;56.60;94209.67;1257425;111;21471;-88
2022/11/04 10:11:38;;;;;;;24.95;12.07;;;;;;;10.47;56.87;94200.34;1269879;111;21266;-85
2022/11/04 10:14:21;;;;;;;22.87;11.57;;;;;;;10.54;56.73;94199.43;1259664;112;21286;-88
2022/11/04 10:17:14;;;;;;;29.37;11.20;;;;;;;10.67;56.31;94197.88;1284013;110;21762;-83
2022/11/04 10:19:55;;;;;;;17.40;10.48;;;;;;;10.72;56.38;94193.16;1297564;109;21233;-82
2022/11/04 10:22:34;;;;;;;23.67;11.10;;;;;;;10.80;55.84;94200.01;1297857;109;21337;-87
2022/11/04 10:25:40;;;;;;;37.53;12.65;;;;;;;10.90;55.54;94197.41;1299429;109;21978;-88
2022/11/04 10:28:14;;;;;;;16.32;9.55;;;;;;;11.02;55.54;94196.44;1296350;109;21649;-81
2022/11/04 10:30:45;;;;;;;22.50;12.05;;;;;;;11.19;55.31;94186.60;1296432;109;21240;-84
2022/11/04 10:33:40;;;;;;;25.60;11.90;;;;;;;11.30;55.06;94181.38;1285914;107;21194;-88
2022/11/04 10:39:17;;;;;;;30.15;13.80;;;;;;;11.19;55.28;94170.08;1345492;105;21242;-88
2022/11/04 10:45:12;;;;;;;29.90;15.40;;;;;;;11.35;55.29;94157.95;1329881;103;22730;-87
2022/11/04 10:48:25;;;;;;;32.73;19.00;;;;;;;11.41;55.22;94159.61;1350288;104;21201;-86
2022/11/04 10:51:08;;;;;;;24.25;14.43;;;;;;;11.45;55.14;94151.16;1289935;106;21393;-85
2022/11/04 10:53:46;;;;;;;30.00;18.37;;;;;;;11.51;55.04;94151.44;1293482;109;21464;-86
2022/11/04 10:56:58;;;;;;;27.00;16.95;;;;;;;11.62;55.07;94146.21;1281524;111;21242;-87
2022/11/04 11:00:02;;;;;;;40.92;24.23;;;;;;;11.80;55.08;94139.21;1305349;110;21203;-85
2022/11/04 11:02:59;;;;;;;34.58;18.85;;;;;;;12.01;54.26;94120.22;1324631;106;21163;-85
2022/11/04 11:05:30;;;;;;;32.90;19.90;;;;;;;12.19;54.51;94125.59;1324808;106;23232;-85
2022/11/04 11:08:00;;;;;;;30.60;18.95;;;;;;;12.30;54.54;94121.66;1314188;109;21132;-88
2022/11/04 11:10:39;;;;;;;45.03;23.50;;;;;;;12.38;54.85;94115.94;1307178;107;21239;-82
2022/11/04 11:13:25;;;;;;;38.78;20.35;;;;;;;12.38;54.39;94118.69;1263541;113;21229;-86
2022/11/04 11:16:12;;;;;;;30.72;17.95;;;;;;;12.35;53.20;94109.98;1277752;110;21220;-86
2022/11/04 11:18:41;;;;;;;32.08;18.07;;;;;;;12.23;53.53;94111.00;1255305;113;22018;-84
2022/11/04 11:21:14;;;;;;;33.65;16.87;;;;;;;12.29;53.46;94116.00;1232704;116;21235;-80
2022/11/04 11:23:46;;;;;;;28.00;16.27;;;;;;;12.42;53.60;94104.09;1259068;112;21234;-84
2022/11/04 11:26:19;;;;;;;35.68;19.55;;;;;;;12.47;53.05;94108.94;1263292;111;21256;-78
2022/11/04 11:28:55;;;;;;;29.98;17.77;;;;;;;12.58;52.64;94103.02;1289460;109;21237;-80
2022/11/04 11:31:25;;;;;;;45.65;20.12;;;;;;;12.83;52.58;94105.20;1323662;106;21282;-85
2022/11/04 11:33:57;;;;;;;45.12;21.37;;;;;;;12.98;52.19;94096.93;1338968;107;21204;-80
2022/11/04 11:36:33;;;;;;;41.45;21.52;;;;;;;13.20;51.63;94098.05;1319131;104;21205;-81
2022/11/04 11:39:13;;;;;;;44.88;21.05;;;;;;;13.49;51.36;94095.83;1334327;105;21701;-80
2022/11/04 11:42:05;;;;;;;35.00;19.65;;;;;;;13.67;50.72;94092.82;1310866;107;21278;-80
2022/11/04 11:44:46;;;;;;;30.70;18.95;;;;;;;13.68;50.34;94096.49;1320103;108;21256;-81
2022/11/04 11:47:28;;;;;;;39.73;21.70;;;;;;;13.64;50.39;94086.87;1289980;109;21216;-84
2022/11/04 11:50:15;;;;;;;35.08;19.00;;;;;;;13.62;50.39;94071.40;1297987;109;21248;-82
2022/11/04 11:53:16;;;;;;;39.85;20.15;;;;;;;13.56;50.55;94071.92;1292663;110;21238;-82
2022/11/04 11:56:16;;;;;;;34.40;20.70;;;;;;;13.55;50.56;94069.80;1276827;109;21191;-81
2022/11/04 11:59:04;;;;;;;43.83;18.75;;;;;;;13.60;50.30;94062.83;1317599;108;21749;-81
2022/11/04 12:01:37;;;;;;;38.67;19.80;;;;;;;13.56;50.42;94064.41;1310552;108;21242;-86
2022/11/04 12:04:06;;;;;;;32.28;17.95;;;;;;;13.66;50.44;94060.89;1312978;107;21573;-82
2022/11/04 12:19:31;;;;;;;;;;;;;;;;;;;;;
2022/11/04 12:29:39;;;;;;;33.38;19.87;;;;;;;15.44;48.42;94030.43;1185019;117;20497;-86
2022/11/04 12:33:13;;;;;;;28.77;17.92;;;;;;;15.91;47.54;94038.73;1187372;119;21260;-84
2022/11/04 12:36:30;;;;;;;33.88;19.87;;;;;;;16.45;46.13;94040.97;1182160;120;21291;-87
2022/11/04 12:39:41;;;;;;;35.88;21.17;;;;;;;16.79;44.75;94039.00;1216915;117;21366;-82
2022/11/04 12:42:54;;;;;;;35.58;17.92;;;;;;;16.82;45.13;94043.54;1214957;117;22530;-83
2022/11/04 12:45:38;;;;;;;35.92;15.90;;;;;;;16.89;44.46;94038.24;1242076;115;21309;-81
2022/11/04 12:48:19;;;;;;;;;;;;;;;;;;;;;
2022/11/04 12:51:13;;;;;;;21.00;12.00;;;;;;;16.73;43.28;94037.59;1197761;118;21321;-83
2022/11/04 12:54:21;;;;;;;23.27;12.40;;;;;;;16.92;42.70;94035.84;1181977;118;21768;-84
2022/11/04 12:57:39;;;;;;;21.62;10.18;;;;;;;17.14;42.26;94029.53;1200036;117;21333;-81
2022/11/04 13:11:24;;;;;;;31.50;16.05;;;;;;;17.26;41.62;94032.44;1203962;112;21113;-89
2022/11/04 13:19:43;;;;;;;33.73;15.93;;;;;;;17.16;41.94;94027.00;1197459;116;21255;-85
2022/11/04 13:23:31;;;;;;;33.23;16.85;;;;;;;16.89;42.37;94032.69;1189439;115;21177;-83
2022/11/04 13:27:04;;;;;;;;;;;;;;;16.77;42.79;94036.70;1216720;117;21114;-80
2022/11/04 13:29:40;;;;;;;;;;;;;;;;;;;;;
2022/11/04 13:33:39;;;;;;;72.75;30.10;;;;;;;16.49;43.45;94028.21;1196139;118;21295;-84
2022/11/04 13:36:30;;;;;;;81.40;36.83;;;;;;;16.44;44.18;94030.36;1175860;121;21409;-86
2022/11/04 13:40:12;;;;;;;100.25;36.30;;;;;;;16.24;44.54;94036.08;1178111;121;22300;-81
2022/11/04 13:43:37;;;;;;;76.97;32.20;;;;;;;15.95;45.45;94039.25;1192770;117;21279;-85
2022/11/04 13:46:29;;;;;;;73.15;30.45;;;;;;;15.79;45.56;94033.03;1212848;116;21272;-84
2022/11/04 13:49:29;;;;;;;73.72;28.77;;;;;;;15.56;45.52;94025.83;1281396;109;21301;-84
2022/11/04 13:52:09;;;;;;;91.05;31.73;;;;;;;15.32;45.48;94028.86;1316883;109;21164;-82